Airport View

Enter AWOS ICAO identifier for current METAR.

ex. KFNL

KHUT 211152Z 05003KT 10SM CLR 20/19 A3000 RMK AO2 SLP134 70001 T02000189 10250 20194 53007

21 Jul 2018 12:59

Phone: 620-662-1071

Other Area AWOS: KEWK - KICT - KAAO - KBEC

TAF KHUT 211120Z 2112/2212 06009KT P6SM SCT200 FM220300 VRB03KT P6SM SCT250